Sassy — WDI7793 — position and weather

sailwx.info

Track history (hours):
 
Tides and Currents Weather Stations Pressure Air Temp Water Temp Dewpoint Dewpoint Depression Visibility Wind Speed Wind Dir Waves Ship Positions

Sassy

Owner: 674 Yacht Management Corp, Fort Lauderdale, FL. More information available from US FCC via Universal Licensing System and Coast Guard Vessel Documentation Center.

Last reported at 2018-Apr-12 17:52 UTC. Time now 2018-Jun-19 22:17 UTC.
Position N 26°10' W 080°06'.
Warning: this ship's position is months out of date.

Type: Pleasure craft. MMSI: 367732250.

Date/timePositionNaut miles runAvg speedWind from/ knotsBaromVisibWave heightAir tempDewpointWater temp
2018-Apr-12 17:52N 26°10' W 080°06'2 6.6
2018-Apr-12 17:30N 26°08' W 080°07'3 5.3
2018-Apr-12 17:00N 26°06' W 080°07'2 3.8
2018-Apr-12 16:28N 26°04' W 080°08'0 0.0
2018-Apr-12 15:58N 26°04' W 080°08'0 0.0
2018-Apr-12 15:28N 26°04' W 080°08'0 0.0
2018-Apr-12 14:58N 26°04' W 080°08'0 0.0
2018-Apr-12 14:28N 26°04' W 080°08'0 0.2
2018-Apr-12 14:00N 26°04' W 080°08'3 5.1
2018-Apr-12 13:30N 26°06' W 080°07'2 4.8
2018-Apr-12 13:00N 26°08' W 080°06'  
2018-Apr-07 20:24N 26°11' W 080°06'3 6.3
2018-Apr-07 19:59N 26°08' W 080°07'2 4.3
2018-Apr-07 19:28N 26°06' W 080°07'1 2.9
2018-Apr-07 18:58N 26°07' W 080°06'0 0.6
2018-Apr-07 18:27N 26°07' W 080°06'0 0.0
2018-Apr-07 18:00N 26°07' W 080°06'0 0.1
2018-Apr-07 17:29N 26°07' W 080°06'2 4.2
2018-Apr-07 17:00N 26°05' W 080°07'2 2.9
2018-Apr-07 16:23N 26°07' W 080°07'  
Track history (hours):
 
Tides and Currents Weather Stations Pressure Air Temp Water Temp Dewpoint Dewpoint Depression Visibility Wind Speed Wind Dir Waves Ship Positions

Sassy

Owner: 674 Yacht Management Corp, Fort Lauderdale, FL. More information available from US FCC via Universal Licensing System and Coast Guard Vessel Documentation Center.

Last reported at 2018-Apr-12 17:52 UTC. Time now 2018-Jun-19 22:17 UTC.
Position N 26°10' W 080°06'.
Warning: this ship's position is months out of date.

Type: Pleasure craft. MMSI: 367732250.

Date/timePositionNaut miles runAvg speedWind from/ knotsBaromVisibWave heightAir tempDewpointWater temp
2018-Apr-12 17:52N 26°10' W 080°06'2 6.6
2018-Apr-12 17:30N 26°08' W 080°07'3 5.3
2018-Apr-12 17:00N 26°06' W 080°07'2 3.8
2018-Apr-12 16:28N 26°04' W 080°08'0 0.0
2018-Apr-12 15:58N 26°04' W 080°08'0 0.0
2018-Apr-12 15:28N 26°04' W 080°08'0 0.0
2018-Apr-12 14:58N 26°04' W 080°08'0 0.0
2018-Apr-12 14:28N 26°04' W 080°08'0 0.2
2018-Apr-12 14:00N 26°04' W 080°08'3 5.1
2018-Apr-12 13:30N 26°06' W 080°07'2 4.8
2018-Apr-12 13:00N 26°08' W 080°06'  
2018-Apr-07 20:24N 26°11' W 080°06'3 6.3
2018-Apr-07 19:59N 26°08' W 080°07'2 4.3
2018-Apr-07 19:28N 26°06' W 080°07'1 2.9
2018-Apr-07 18:58N 26°07' W 080°06'0 0.6
2018-Apr-07 18:27N 26°07' W 080°06'0 0.0
2018-Apr-07 18:00N 26°07' W 080°06'0 0.1
2018-Apr-07 17:29N 26°07' W 080°06'2 4.2
2018-Apr-07 17:00N 26°05' W 080°07'2 2.9
2018-Apr-07 16:23N 26°07' W 080°07'  

Dump ship's entire track history